VOCL

Details ICAO VOCL (CCJ)
Name CALICUT
Region India
Timezone Asia/Kolkata (UTC+5.5)
Plans Departing 28
Arriving 30
Stats Elevation 342 ft / 104 m (AMSL)
Location 11.136840° 75.955300°
Runways 1
Magnetic Variation 1.492° W
Sunrise 2017-12-15 01:08:20 UTC / 2017-12-15 06:38:20 Local
Sunset 2017-12-15 12:36:55 UTC / 2017-12-15 18:06:55 Local
Advertisement - Login to hide

Runways

ID Width Length Bearing (true) Bearing (mag) Surface Threshold Offset Overrun Length
10 150 ft / 46 m 9,384 ft / 2,860 m 101.05° 102.54° Asphalt 0 ft / 0 m 190 ft / 58 m
28 150 ft / 46 m 9,384 ft / 2,860 m 281.06° 282.55° Asphalt 0 ft / 0 m 190 ft / 58 m

Approach Navaids

Runway Type Ident Frequency Range Bearing (true) Bearing (mag) Slope Elevation
28 Localiser ICAC 109.50 MHz 18 nm / 33 km 275.76° 277.25° - 311 ft / 95 m (AMSL)
28 Glidescope ICAC 109.50 MHz 10 nm / 19 km 281.06° 282.55° 3.20° 320 ft / 98 m (AMSL)
28 DME ICAC 109.50 MHz 18 nm / 33 km - - - 342 ft / 104 m (AMSL)

Map

Weather


0- 5 10 15 20 25 30 35+ Temperature / ° C

Clouds and Precipitation
Forecast for 2017-12-15 00:00 UTC. Updated 2 hours ago

Ground ~20,000 ft ~40,000 ft Winds

METAR

VOCL 150100Z 07002KT 2000 BR NSC 23/21 Q1012 TEMPO 1500 BR

TAF

Not found

Frequencies

Recorded 127.00 MHz ATIS
Tower 123.35 MHz TWR
Tower 122.95 MHz TWR
Warning: Do not use this data for real-world aviation or navigation. No guarantee of current accuracy is given.